Time;durP1;ratioP1;P1;durP2;ratioP2;P2;SDS_P1;SDS_P2;PMS_P1;PMS_P2;Temp;Humidity;BMP_temperature;BMP_pressure;BME280_temperature;BME280_humidity;BME280_pressure;Samples;Min_cycle;Max_cycle;Signal;HPM_P1;HPM_P2
2021/12/11 00:01:18;;;;;;;40.15;25.90;;;-1.50;99.90;;;;;;5082503;28;20237;-53
2021/12/11 00:03:56;;;;;;;48.40;26.67;;;-1.50;99.90;;;;;;5082303;28;20206;-52
2021/12/11 00:06:31;;;;;;;42.40;26.13;;;-1.50;99.90;;;;;;5081834;28;20202;-53
2021/12/11 00:09:08;;;;;;;37.38;23.70;;;-1.50;99.90;;;;;;5081595;28;20428;-53
2021/12/11 00:11:38;;;;;;;48.42;27.98;;;-1.60;99.90;;;;;;5081390;28;20222;-49
2021/12/11 00:14:09;;;;;;;44.17;28.77;;;-1.40;99.90;;;;;;5081156;28;20241;-52
2021/12/11 00:16:37;;;;;;;49.45;27.23;;;-1.30;99.90;;;;;;5077455;28;20219;-54
2021/12/11 00:19:20;;;;;;;45.25;28.10;;;-1.30;99.90;;;;;;5061662;28;20204;-54
2021/12/11 00:21:48;;;;;;;48.15;27.35;;;-1.30;99.90;;;;;;5061785;28;20219;-49
2021/12/11 00:24:19;;;;;;;49.33;28.95;;;-1.20;99.90;;;;;;5061791;28;20199;-51
2021/12/11 00:26:55;;;;;;;50.72;29.17;;;-1.20;99.90;;;;;;5061385;28;20402;-51
2021/12/11 00:29:24;;;;;;;41.35;25.20;;;-1.20;99.90;;;;;;5061917;28;20200;-49
2021/12/11 00:31:56;;;;;;;52.53;26.38;;;-1.10;99.90;;;;;;5060509;28;20238;-50
2021/12/11 00:34:24;;;;;;;40.05;25.63;;;-1.10;99.90;;;;;;5061023;28;20199;-50
2021/12/11 00:37:00;;;;;;;46.45;27.48;;;-1.10;99.90;;;;;;5061490;28;20241;-50
2021/12/11 00:39:29;;;;;;;40.85;25.58;;;-1.10;99.90;;;;;;5063005;28;20414;-54
2021/12/11 00:42:00;;;;;;;53.28;30.88;;;-1.10;99.90;;;;;;5061725;28;20277;-49
2021/12/11 00:44:38;;;;;;;45.33;28.20;;;-1.10;99.90;;;;;;5060731;28;20257;-52
2021/12/11 00:47:09;;;;;;;51.45;29.98;;;-1.10;99.90;;;;;;5061249;28;20245;-51
2021/12/11 00:50:04;;;;;;;44.47;28.60;;;-1.10;99.90;;;;;;5061450;28;20253;-51
2021/12/11 00:52:37;;;;;;;44.10;28.67;;;-1.00;99.90;;;;;;5060833;28;20236;-52
2021/12/11 00:55:16;;;;;;;51.85;31.95;;;-1.00;99.90;;;;;;5060114;28;20221;-55
2021/12/11 00:57:44;;;;;;;44.30;28.52;;;-1.00;99.90;;;;;;5060583;28;20195;-51
2021/12/11 01:00:22;;;;;;;45.85;28.02;;;-0.80;99.90;;;;;;5060147;28;20442;-49
2021/12/11 01:02:54;;;;;;;45.72;29.92;;;-0.80;99.90;;;;;;5060583;28;20219;-53
2021/12/11 01:05:23;;;;;;;54.60;31.85;;;-0.90;99.90;;;;;;5042619;28;20226;-50
2021/12/11 01:07:50;;;;;;;54.85;28.55;;;-0.80;99.90;;;;;;5060206;28;20533;-50
2021/12/11 01:10:26;;;;;;;51.40;31.60;;;-0.90;99.90;;;;;;5059931;28;20557;-53
2021/12/11 01:13:02;;;;;;;43.38;29.27;;;-0.90;99.90;;;;;;5059932;28;20229;-50
2021/12/11 01:15:33;;;;;;;46.50;27.92;;;-0.80;99.90;;;;;;5060044;28;20241;-50
2021/12/11 01:21:26;;;;;;;43.13;26.88;;;-0.80;99.90;;;;;;5060364;28;20195;-51
2021/12/11 01:26:37;;;;;;;52.22;29.30;;;-0.80;99.90;;;;;;5059907;28;20241;-49
2021/12/11 01:29:06;;;;;;;59.05;30.52;;;-0.80;99.90;;;;;;5059831;28;20218;-49
2021/12/11 01:31:34;;;;;;;46.42;27.33;;;-0.80;99.90;;;;;;5060032;28;20422;-49
2021/12/11 01:34:02;;;;;;;47.13;26.05;;;-0.70;99.90;;;;;;5059608;28;20207;-49
2021/12/11 01:36:31;;;;;;;46.47;27.95;;;-0.60;99.90;;;;;;5059823;28;20211;-53
2021/12/11 01:39:00;;;;;;;44.72;28.75;;;-0.70;99.90;;;;;;5059328;28;20217;-55
2021/12/11 01:41:29;;;;;;;42.22;27.60;;;-0.60;99.90;;;;;;5059723;28;20261;-55
2021/12/11 01:43:59;;;;;;;44.90;25.73;;;-0.50;99.90;;;;;;5059140;28;20218;-53
2021/12/11 01:46:28;;;;;;;39.90;25.20;;;-0.60;99.90;;;;;;5059822;28;20476;-51
2021/12/11 01:49:00;;;;;;;33.42;24.00;;;-0.60;99.90;;;;;;5059123;28;20419;-53
2021/12/11 01:51:37;;;;;;;45.72;25.45;;;-0.60;99.90;;;;;;5059963;28;20224;-50
2021/12/11 01:54:17;;;;;;;38.03;24.35;;;-0.70;99.90;;;;;;5059271;28;20199;-52
2021/12/11 01:56:49;;;;;;;41.30;23.38;;;-0.60;99.90;;;;;;5060133;28;20223;-54
2021/12/11 01:59:25;;;;;;;35.60;25.40;;;-0.60;99.90;;;;;;5059489;28;20204;-50
2021/12/11 02:02:02;;;;;;;43.97;24.33;;;-0.60;99.90;;;;;;5059752;28;20318;-51
2021/12/11 02:04:32;;;;;;;42.17;25.20;;;-0.80;99.90;;;;;;5059505;28;20261;-52
2021/12/11 02:07:10;;;;;;;37.97;25.08;;;-0.90;99.90;;;;;;5059309;28;20234;-48
2021/12/11 02:09:39;;;;;;;34.60;22.70;;;-0.80;99.90;;;;;;5059597;28;20556;-53
2021/12/11 02:12:14;;;;;;;33.03;21.85;;;-0.70;99.90;;;;;;5059270;28;20231;-49
2021/12/11 02:14:46;;;;;;;34.30;22.63;;;-0.70;99.90;;;;;;5059492;28;20199;-54
2021/12/11 02:17:22;;;;;;;37.80;23.50;;;-0.50;99.90;;;;;;5060170;28;20241;-50
2021/12/11 02:19:51;;;;;;;35.30;22.25;;;-0.60;99.90;;;;;;5062139;28;20218;-50
2021/12/11 02:22:27;;;;;;;43.33;24.40;;;-0.60;99.90;;;;;;5059449;28;20220;-51
2021/12/11 02:25:03;;;;;;;31.73;22.80;;;-0.40;99.90;;;;;;5059186;28;20203;-50
2021/12/11 02:27:34;;;;;;;41.88;22.00;;;-0.50;99.90;;;;;;5059413;28;20204;-49
2021/12/11 02:30:22;;;;;;;35.00;21.13;;;-0.50;99.90;;;;;;5063176;28;20207;-50
2021/12/11 02:33:06;;;;;;;32.47;19.98;;;-0.50;99.90;;;;;;5062944;28;20231;-51
2021/12/11 02:35:37;;;;;;;39.30;22.10;;;-0.50;99.90;;;;;;5063096;28;20195;-50
2021/12/11 02:38:21;;;;;;;30.67;18.40;;;-0.40;99.90;;;;;;5063534;28;20196;-51
2021/12/11 02:40:56;;;;;;;35.42;22.00;;;-0.40;99.90;;;;;;5063805;28;20195;-52
2021/12/11 02:43:38;;;;;;;29.02;19.13;;;-0.40;99.90;;;;;;5065132;28;20199;-55
2021/12/11 02:46:18;;;;;;;39.40;24.10;;;-0.40;99.90;;;;;;5064755;28;20253;-53
2021/12/11 02:48:54;;;;;;;35.67;21.38;;;-0.30;99.90;;;;;;5062809;28;20207;-52
2021/12/11 02:51:38;;;;;;;31.42;19.48;;;-0.30;99.90;;;;;;5062820;28;20265;-51
2021/12/11 02:54:20;;;;;;;29.73;19.50;;;-0.40;99.90;;;;;;5062815;28;20188;-52
2021/12/11 02:56:55;;;;;;;32.25;18.80;;;-0.40;99.90;;;;;;5062710;28;20513;-53
2021/12/11 02:59:27;;;;;;;25.77;18.88;;;-0.30;99.90;;;;;;5063081;28;20195;-51
2021/12/11 03:02:08;;;;;;;33.95;19.50;;;-0.20;99.90;;;;;;5062099;28;20227;-52
2021/12/11 03:04:42;;;;;;;32.03;20.35;;;-0.10;99.90;;;;;;5062482;28;20541;-53
2021/12/11 03:07:13;;;;;;;29.75;18.83;;;0.00;99.90;;;;;;5062328;28;20246;-49
2021/12/11 03:09:50;;;;;;;28.80;18.88;;;0.00;99.90;;;;;;5062532;28;20271;-55
2021/12/11 03:12:19;;;;;;;29.02;19.45;;;0.10;99.90;;;;;;5061713;28;20432;-50
2021/12/11 03:14:47;;;;;;;29.42;20.17;;;0.10;99.90;;;;;;5062068;28;20241;-54
2021/12/11 03:17:16;;;;;;;39.00;21.63;;;0.10;99.90;;;;;;5061969;28;20245;-52
2021/12/11 03:19:45;;;;;;;26.90;19.17;;;0.30;99.90;;;;;;5062183;28;20204;-51
2021/12/11 03:22:17;;;;;;;27.27;18.83;;;0.10;99.90;;;;;;5062393;28;20227;-49
2021/12/11 03:24:45;;;;;;;29.98;17.58;;;0.00;99.90;;;;;;5061990;28;20387;-53
2021/12/11 03:27:13;;;;;;;30.27;18.75;;;-0.10;99.90;;;;;;5062467;28;20199;-54
2021/12/11 03:29:41;;;;;;;27.30;17.90;;;0.00;99.90;;;;;;5063167;28;20222;-54
2021/12/11 03:32:10;;;;;;;27.02;15.77;;;0.10;99.90;;;;;;5063308;28;20248;-51
2021/12/11 03:34:38;;;;;;;25.58;18.27;;;0.20;99.90;;;;;;5063024;28;20234;-51
2021/12/11 03:37:08;;;;;;;23.67;16.08;;;0.30;99.90;;;;;;5061695;28;20203;-48
2021/12/11 03:39:39;;;;;;;30.38;19.13;;;0.30;99.90;;;;;;5061117;28;20200;-56
2021/12/11 03:42:16;;;;;;;27.08;17.58;;;0.50;99.90;;;;;;5062124;28;20220;-51
2021/12/11 03:44:44;;;;;;;31.75;19.67;;;0.50;99.90;;;;;;5061347;28;20199;-50
2021/12/11 03:47:21;;;;;;;28.02;18.85;;;0.40;99.90;;;;;;5044170;28;20468;-50
2021/12/11 03:49:49;;;;;;;27.17;16.83;;;0.20;99.90;;;;;;5061141;28;20206;-51
2021/12/11 03:52:17;;;;;;;30.00;18.90;;;0.20;99.90;;;;;;5061748;28;20220;-51
2021/12/11 03:54:50;;;;;;;27.02;18.27;;;0.10;99.90;;;;;;5061132;28;20195;-52
2021/12/11 03:57:22;;;;;;;31.85;19.10;;;0.00;99.90;;;;;;5064731;28;20221;-53
2021/12/11 03:59:52;;;;;;;28.58;18.73;;;-0.20;99.90;;;;;;5076018;28;20191;-49
2021/12/11 04:02:24;;;;;;;35.00;18.60;;;-0.40;99.90;;;;;;5081954;28;20222;-49
2021/12/11 04:04:55;;;;;;;30.33;18.65;;;-0.60;99.90;;;;;;5081636;28;20666;-53
2021/12/11 04:07:28;;;;;;;30.38;17.15;;;-0.70;99.90;;;;;;5083076;28;20244;-54
2021/12/11 04:09:55;;;;;;;32.90;17.70;;;-0.90;99.90;;;;;;5084192;28;20300;-55
2021/12/11 04:12:26;;;;;;;28.50;19.05;;;-1.10;99.90;;;;;;5066436;28;20214;-53
2021/12/11 04:14:54;;;;;;;32.63;19.73;;;-1.20;99.90;;;;;;5065695;28;20237;-55
2021/12/11 04:17:27;;;;;;;30.75;18.70;;;-1.40;99.90;;;;;;5083506;28;20203;-53
2021/12/11 04:19:59;;;;;;;36.58;21.13;;;-1.40;99.90;;;;;;5082261;28;20195;-49
2021/12/11 04:22:27;;;;;;;27.55;18.83;;;-1.40;99.90;;;;;;5063286;28;20281;-51
2021/12/11 04:24:54;;;;;;;29.15;20.25;;;-1.40;99.90;;;;;;5063073;28;20434;-54
2021/12/11 04:27:24;;;;;;;32.90;18.95;;;-1.60;99.90;;;;;;5080304;28;20198;-53
2021/12/11 04:29:52;;;;;;;32.72;22.73;;;-1.60;99.90;;;;;;5080776;28;20206;-52
2021/12/11 04:32:21;;;;;;;37.22;21.13;;;-1.60;99.90;;;;;;5080858;28;20592;-49
2021/12/11 04:34:48;;;;;;;33.45;22.08;;;-1.60;99.90;;;;;;5080390;28;20233;-51
2021/12/11 04:37:22;;;;;;;30.17;20.55;;;-1.80;99.90;;;;;;5080987;28;20460;-50
2021/12/11 04:39:57;;;;;;;33.63;22.65;;;-1.80;99.90;;;;;;5080309;28;20273;-50
2021/12/11 04:45:19;;;;;;;42.40;24.50;;;-1.60;99.90;;;;;;5080272;28;20295;-51
2021/12/11 04:47:54;;;;;;;36.38;22.55;;;-1.50;99.90;;;;;;5080355;28;20198;-51
2021/12/11 04:56:46;;;;;;;37.20;22.35;;;-1.40;99.90;;;;;;5080251;28;20506;-51
2021/12/11 05:05:05;;;;;;;36.00;21.42;;;-1.40;99.90;;;;;;4998463;28;20201;-51
2021/12/11 05:07:42;;;;;;;31.38;20.58;;;-1.30;99.90;;;;;;5076086;28;20505;-51
2021/12/11 05:10:22;;;;;;;36.35;21.63;;;-1.10;99.90;;;;;;5080447;28;20245;-51
2021/12/11 05:12:54;;;;;;;35.15;21.50;;;-1.10;99.90;;;;;;5079575;28;20256;-53
2021/12/11 05:15:33;;;;;;;32.22;20.50;;;-1.30;99.90;;;;;;5080175;28;20203;-50
2021/12/11 05:18:02;;;;;;;32.50;20.67;;;-1.40;99.90;;;;;;5062423;28;20245;-50
2021/12/11 05:20:32;;;;;;;34.08;22.40;;;-1.50;99.90;;;;;;5080336;28;20198;-48
2021/12/11 05:22:59;;;;;;;35.95;20.48;;;-1.50;99.90;;;;;;5082157;28;20264;-49
2021/12/11 05:25:27;;;;;;;38.55;22.88;;;-1.50;99.90;;;;;;5082849;28;20206;-51
2021/12/11 05:27:55;;;;;;;29.13;20.52;;;-1.40;99.90;;;;;;5086324;28;20198;-53
2021/12/11 05:30:29;;;;;;;39.85;24.52;;;-1.40;99.90;;;;;;5082642;28;20260;-52
2021/12/11 05:32:59;;;;;;;32.53;20.75;;;-1.40;99.90;;;;;;5082115;28;20226;-52
2021/12/11 05:35:29;;;;;;;32.55;19.88;;;-1.50;99.90;;;;;;5080814;28;20194;-53
2021/12/11 05:37:58;;;;;;;38.15;22.08;;;-1.50;99.90;;;;;;5080771;28;20202;-50
2021/12/11 05:40:28;;;;;;;34.95;21.35;;;-1.50;99.90;;;;;;5082273;28;20423;-50
2021/12/11 05:42:56;;;;;;;27.15;19.75;;;-1.50;99.90;;;;;;5079860;28;20227;-54
2021/12/11 05:45:24;;;;;;;35.28;21.35;;;-1.60;99.90;;;;;;5079678;28;20199;-50
2021/12/11 05:47:52;;;;;;;30.50;22.15;;;-1.50;99.90;;;;;;5079735;28;20205;-54
2021/12/11 05:50:26;;;;;;;32.13;21.95;;;-1.50;99.90;;;;;;5079990;28;20275;-53
2021/12/11 05:52:54;;;;;;;28.23;19.23;;;-1.50;99.90;;;;;;5079807;28;20355;-54
2021/12/11 05:55:23;;;;;;;36.65;21.00;;;-1.50;99.90;;;;;;5081408;28;20187;-50
2021/12/11 05:57:55;;;;;;;41.50;21.33;;;-1.40;99.90;;;;;;5080097;28;20195;-52
2021/12/11 06:00:31;;;;;;;31.77;21.23;;;-1.50;99.90;;;;;;5080331;28;20281;-50
2021/12/11 06:03:00;;;;;;;47.03;24.83;;;-1.40;99.90;;;;;;5080707;28;20271;-51
2021/12/11 06:05:28;;;;;;;32.90;22.33;;;-1.40;99.90;;;;;;5084310;28;20444;-48
2021/12/11 06:07:56;;;;;;;44.05;23.50;;;-1.40;99.90;;;;;;5083902;28;20199;-50
2021/12/11 06:10:24;;;;;;;35.75;22.98;;;-1.60;99.90;;;;;;5084364;28;20249;-52
2021/12/11 06:12:55;;;;;;;40.28;24.23;;;-1.50;99.90;;;;;;5083482;28;20223;-49
2021/12/11 06:15:23;;;;;;;26.58;19.55;;;-1.30;99.90;;;;;;5084289;28;20240;-53
2021/12/11 06:17:50;;;;;;;34.55;20.90;;;-1.20;99.90;;;;;;5084266;28;20264;-52
2021/12/11 06:20:21;;;;;;;35.78;22.70;;;-1.20;99.90;;;;;;5084781;28;20198;-52
2021/12/11 06:22:49;;;;;;;33.78;21.58;;;-1.10;99.90;;;;;;5083765;28;20231;-50
2021/12/11 06:25:20;;;;;;;41.75;24.70;;;-1.10;99.90;;;;;;5083738;28;20204;-50
2021/12/11 06:27:48;;;;;;;41.20;24.95;;;-1.10;99.90;;;;;;5083521;28;20528;-53
2021/12/11 06:30:16;;;;;;;33.83;23.50;;;-1.10;99.90;;;;;;5083622;28;20436;-53
2021/12/11 06:32:45;;;;;;;35.45;22.88;;;-1.20;99.90;;;;;;5084233;28;20223;-51
2021/12/11 06:35:34;;;;;;;37.55;23.48;;;-1.20;99.90;;;;;;5084374;28;20505;-50
2021/12/11 06:38:03;;;;;;;38.25;25.83;;;-1.20;99.90;;;;;;5082640;28;20195;-50
2021/12/11 06:40:30;;;;;;;36.63;24.92;;;-1.20;99.90;;;;;;5083335;28;20198;-50
2021/12/11 06:42:58;;;;;;;43.42;24.98;;;-1.10;99.90;;;;;;5083960;28;20267;-50
2021/12/11 06:45:26;;;;;;;33.17;25.52;;;-1.10;99.90;;;;;;5083532;28;20199;-52
2021/12/11 06:47:54;;;;;;;40.95;25.58;;;-1.20;99.90;;;;;;5084334;28;20330;-50
2021/12/11 06:50:22;;;;;;;39.40;23.48;;;-1.30;99.90;;;;;;5085417;28;20198;-49
2021/12/11 06:52:50;;;;;;;38.63;26.95;;;-1.30;99.90;;;;;;5084365;28;20262;-49
2021/12/11 06:55:19;;;;;;;46.75;28.65;;;-1.40;99.90;;;;;;5083480;28;20264;-53
2021/12/11 06:57:47;;;;;;;38.65;28.83;;;-1.40;99.90;;;;;;5083697;28;20195;-53
2021/12/11 07:00:17;;;;;;;45.72;29.15;;;-1.40;99.90;;;;;;5083557;28;20222;-50
2021/12/11 07:02:44;;;;;;;44.30;27.38;;;-1.40;99.90;;;;;;5083580;28;20253;-51
2021/12/11 07:05:12;;;;;;;38.60;24.85;;;-1.20;99.90;;;;;;5084017;28;20189;-51
2021/12/11 07:07:42;;;;;;;38.75;26.23;;;-1.30;99.90;;;;;;5084580;28;20233;-52
2021/12/11 07:10:14;;;;;;;37.83;24.35;;;-1.10;99.90;;;;;;5084219;28;20517;-50
2021/12/11 07:12:42;;;;;;;45.80;27.92;;;-0.90;99.90;;;;;;5084298;28;20444;-52
2021/12/11 07:15:10;;;;;;;44.20;26.52;;;-0.70;99.90;;;;;;5082698;28;20194;-53
2021/12/11 07:17:38;;;;;;;45.35;25.02;;;-0.70;99.90;;;;;;5083714;28;20195;-53
2021/12/11 07:20:08;;;;;;;39.55;26.13;;;-0.70;99.90;;;;;;5086028;28;20268;-52
2021/12/11 07:22:39;;;;;;;44.45;26.40;;;-0.70;99.90;;;;;;5085785;28;20276;-53
2021/12/11 07:25:32;;;;;;;43.67;26.83;;;-0.60;99.90;;;;;;5083454;28;20225;-51
2021/12/11 07:28:03;;;;;;;37.55;22.92;;;-0.70;99.90;;;;;;5083822;28;20211;-52
2021/12/11 07:30:33;;;;;;;40.80;25.92;;;-0.70;99.90;;;;;;5083153;28;20582;-54
2021/12/11 07:33:04;;;;;;;35.72;25.05;;;-0.70;99.90;;;;;;5083718;28;20226;-51
2021/12/11 07:35:33;;;;;;;48.15;29.40;;;-0.70;99.90;;;;;;5083163;28;20593;-49
2021/12/11 07:38:01;;;;;;;46.85;30.73;;;-0.90;99.90;;;;;;5080715;28;20207;-51
2021/12/11 07:40:36;;;;;;;42.70;29.88;;;-1.10;99.90;;;;;;5082530;28;20233;-52
2021/12/11 07:43:05;;;;;;;55.20;31.55;;;-1.00;99.90;;;;;;5083207;28;20226;-54
2021/12/11 07:45:34;;;;;;;46.58;31.90;;;-1.10;99.90;;;;;;5083339;28;20374;-56
2021/12/11 07:48:02;;;;;;;43.08;30.58;;;-1.10;99.90;;;;;;5083467;28;20203;-51
2021/12/11 07:50:30;;;;;;;52.53;29.88;;;-1.00;99.90;;;;;;5081102;28;20248;-54
2021/12/11 07:52:57;;;;;;;49.83;31.98;;;-1.30;99.90;;;;;;5081403;28;20268;-54
2021/12/11 07:55:25;;;;;;;53.20;32.17;;;-1.20;99.90;;;;;;5082895;28;20242;-53
2021/12/11 07:57:53;;;;;;;47.80;34.17;;;-1.00;99.90;;;;;;5082218;28;20513;-54
2021/12/11 08:00:23;;;;;;;52.00;32.28;;;-0.80;99.90;;;;;;5080799;28;20195;-57
2021/12/11 08:02:51;;;;;;;46.65;31.35;;;-0.60;99.90;;;;;;5086165;28;20260;-52
2021/12/11 08:05:19;;;;;;;54.47;34.92;;;-0.50;99.90;;;;;;5083868;28;20209;-51
2021/12/11 08:07:47;;;;;;;53.65;33.17;;;-0.50;99.90;;;;;;5082185;28;20203;-54
2021/12/11 08:10:19;;;;;;;50.47;32.38;;;-0.30;99.90;;;;;;5072442;28;20199;-51
2021/12/11 08:12:46;;;;;;;47.28;35.03;;;-0.10;99.90;;;;;;5074727;28;20319;-52
2021/12/11 08:15:16;;;;;;;45.85;32.10;;;-0.20;99.90;;;;;;5082009;28;20206;-50
2021/12/11 08:17:44;;;;;;;47.80;32.40;;;0.00;99.90;;;;;;5079216;28;20202;-50
2021/12/11 08:20:13;;;;;;;43.17;30.13;;;0.20;99.90;;;;;;5081463;28;20253;-50
2021/12/11 08:22:41;;;;;;;46.80;31.58;;;0.50;99.90;;;;;;5081296;28;20219;-52
2021/12/11 08:25:10;;;;;;;50.47;32.03;;;0.40;99.90;;;;;;5081433;28;20241;-54
2021/12/11 08:27:37;;;;;;;43.92;28.90;;;0.80;99.90;;;;;;5077552;28;20430;-52
2021/12/11 08:30:06;;;;;;;49.17;31.63;;;0.70;99.90;;;;;;5075259;28;20196;-54
2021/12/11 08:32:34;;;;;;;44.83;30.48;;;0.60;99.90;;;;;;5071405;28;20221;-51
2021/12/11 08:35:05;;;;;;;39.22;25.83;;;0.50;99.90;;;;;;5071619;28;20219;-53
2021/12/11 08:37:32;;;;;;;56.22;29.27;;;0.70;99.90;;;;;;5080527;28;20397;-54
2021/12/11 08:39:59;;;;;;;50.45;28.48;;;1.10;99.90;;;;;;5073505;28;20217;-54
2021/12/11 08:42:27;;;;;;;47.25;28.08;;;1.30;99.90;;;;;;5046684;28;20207;-51
2021/12/11 08:45:05;;;;;;;48.30;29.77;;;1.50;99.90;;;;;;5064841;28;20200;-52
2021/12/11 08:47:35;;;;;;;43.90;29.02;;;1.70;99.90;;;;;;5062557;28;20199;-52
2021/12/11 08:50:13;;;;;;;45.17;28.85;;;1.30;99.90;;;;;;5064113;28;20203;-53
2021/12/11 08:52:43;;;;;;;42.00;28.05;;;1.20;99.90;;;;;;5066591;28;20226;-50
2021/12/11 08:55:28;;;;;;;43.60;28.38;;;1.30;99.90;;;;;;5048371;28;20562;-53
2021/12/11 08:57:57;;;;;;;45.78;28.42;;;1.40;99.90;;;;;;5068548;28;20203;-51
2021/12/11 09:00:33;;;;;;;49.03;30.85;;;1.80;99.90;;;;;;5070673;28;20269;-49
2021/12/11 09:03:10;;;;;;;44.17;28.40;;;2.10;99.90;;;;;;5064848;28;20415;-50
2021/12/11 09:05:45;;;;;;;42.22;31.33;;;2.50;99.90;;;;;;5074221;28;20199;-57
2021/12/11 09:08:20;;;;;;;49.60;27.83;;;2.90;99.90;;;;;;5068736;28;20575;-51
2021/12/11 09:11:03;;;;;;;52.58;28.23;;;2.90;99.90;;;;;;5061580;28;20203;-51
2021/12/11 09:13:46;;;;;;;45.67;27.00;;;2.80;99.90;;;;;;5062897;28;20513;-52
2021/12/11 09:16:34;;;;;;;40.33;26.35;;;3.00;99.90;;;;;;5061669;28;20494;-54
2021/12/11 09:19:10;;;;;;;49.42;28.00;;;3.00;99.90;;;;;;5063061;28;20203;-56
2021/12/11 09:21:48;;;;;;;40.67;25.77;;;3.20;99.90;;;;;;5060643;28;20236;-55
2021/12/11 09:24:23;;;;;;;39.00;25.00;;;3.30;99.90;;;;;;5067521;28;20207;-49
2021/12/11 09:26:52;;;;;;;41.50;24.13;;;3.50;99.90;;;;;;5075453;28;20244;-49
2021/12/11 09:29:31;;;;;;;37.00;24.33;;;3.50;99.90;;;;;;5078776;28;20219;-55
2021/12/11 09:32:16;;;;;;;42.15;27.00;;;3.50;99.90;;;;;;5076588;28;20268;-53
2021/12/11 09:34:55;;;;;;;43.67;27.73;;;3.60;99.90;;;;;;5074744;28;20619;-53
2021/12/11 09:37:23;;;;;;;38.80;25.95;;;3.60;99.90;;;;;;5079069;28;20552;-53
2021/12/11 09:40:00;;;;;;;47.85;27.27;;;3.40;99.90;;;;;;5078198;28;20211;-50
2021/12/11 09:42:27;;;;;;;49.00;27.52;;;3.40;99.90;;;;;;5079886;28;20298;-52
2021/12/11 09:45:06;;;;;;;50.70;28.55;;;3.20;99.90;;;;;;5076071;28;20281;-53
2021/12/11 09:47:40;;;;;;;46.53;29.15;;;3.40;99.90;;;;;;5079151;28;20268;-51
2021/12/11 09:50:16;;;;;;;47.90;28.80;;;3.70;99.90;;;;;;5078918;28;20207;-56
2021/12/11 09:52:46;;;;;;;50.38;30.73;;;3.50;99.90;;;;;;5079564;28;20429;-54
2021/12/11 09:55:31;;;;;;;57.35;30.98;;;3.60;99.90;;;;;;5078858;28;20241;-52
2021/12/11 09:58:01;;;;;;;48.15;31.17;;;3.60;99.90;;;;;;5079059;28;20559;-49
2021/12/11 10:00:34;;;;;;;58.20;33.42;;;3.60;99.90;;;;;;5079240;28;20191;-54
2021/12/11 10:03:04;;;;;;;50.92;27.85;;;3.70;99.90;;;;;;5079148;28;20588;-52
2021/12/11 10:05:42;;;;;;;43.63;26.17;;;3.70;99.90;;;;;;5079513;28;20226;-54
2021/12/11 10:08:38;;;;;;;45.00;27.15;;;3.50;99.90;;;;;;5071816;28;20204;-56
2021/12/11 10:11:33;;;;;;;51.15;32.92;;;3.50;99.90;;;;;;5069672;28;20233;-48
2021/12/11 10:14:07;;;;;;;49.53;30.00;;;3.00;99.90;;;;;;5077390;28;20387;-51
2021/12/11 10:16:42;;;;;;;52.58;30.60;;;2.70;99.90;;;;;;5079941;28;20221;-49
2021/12/11 10:19:13;;;;;;;46.00;28.08;;;2.70;99.90;;;;;;5079073;28;20226;-52
2021/12/11 10:21:45;;;;;;;51.30;30.38;;;2.50;99.90;;;;;;5079843;28;20260;-48
2021/12/11 10:24:19;;;;;;;46.35;27.85;;;2.60;99.90;;;;;;5079942;28;20206;-50
2021/12/11 10:26:47;;;;;;;48.15;29.00;;;2.30;99.90;;;;;;5072715;28;20203;-55
2021/12/11 10:29:15;;;;;;;47.05;30.13;;;2.30;99.90;;;;;;5075735;28;20257;-49
2021/12/11 10:31:50;;;;;;;43.88;30.80;;;2.60;99.90;;;;;;5079739;28;20264;-49
2021/12/11 10:34:21;;;;;;;47.55;26.00;;;2.70;99.90;;;;;;5071253;28;20408;-53
2021/12/11 10:36:58;;;;;;;49.45;30.65;;;3.00;99.90;;;;;;5079901;28;20323;-52
2021/12/11 10:39:26;;;;;;;46.22;29.35;;;3.00;99.90;;;;;;5080506;28;20199;-52
2021/12/11 10:41:56;;;;;;;46.00;29.80;;;3.00;99.90;;;;;;5081965;28;20219;-51
2021/12/11 10:44:27;;;;;;;44.83;28.25;;;3.00;99.90;;;;;;5072310;28;20199;-52
2021/12/11 10:47:03;;;;;;;43.03;29.73;;;3.20;99.90;;;;;;5079222;28;20203;-51
2021/12/11 10:49:31;;;;;;;54.22;31.25;;;3.40;99.90;;;;;;5081126;28;20252;-51
2021/12/11 10:52:14;;;;;;;51.28;32.72;;;3.40;99.90;;;;;;5082575;28;20450;-51
2021/12/11 10:54:43;;;;;;;55.15;29.88;;;3.40;99.90;;;;;;5074833;28;20219;-51
2021/12/11 10:57:10;;;;;;;42.58;28.70;;;3.60;99.90;;;;;;5083012;28;20375;-49
2021/12/11 10:59:41;;;;;;;46.55;29.40;;;3.70;99.90;;;;;;5076197;28;20525;-52
2021/12/11 11:02:22;;;;;;;46.03;28.70;;;3.80;99.90;;;;;;5069168;28;20223;-50
2021/12/11 11:04:58;;;;;;;49.67;29.77;;;3.90;99.90;;;;;;5070400;28;20527;-54
2021/12/11 11:07:27;;;;;;;41.20;28.42;;;3.90;99.90;;;;;;5063239;28;20257;-52
2021/12/11 11:09:57;;;;;;;45.10;32.13;;;3.90;99.90;;;;;;5063099;28;20200;-51
2021/12/11 11:12:27;;;;;;;53.35;27.88;;;3.70;99.90;;;;;;5062915;28;20243;-52
2021/12/11 11:14:55;;;;;;;40.50;28.10;;;3.80;99.90;;;;;;5062887;28;20492;-53
2021/12/11 11:17:28;;;;;;;47.38;28.83;;;3.70;99.90;;;;;;5063958;28;20269;-54
2021/12/11 11:19:56;;;;;;;58.28;27.58;;;3.90;99.90;;;;;;5081818;28;20203;-50
2021/12/11 11:22:28;;;;;;;53.70;31.60;;;4.00;99.90;;;;;;5074177;28;20242;-53
2021/12/11 11:25:13;;;;;;;44.75;30.08;;;3.90;99.90;;;;;;5081629;28;20203;-52
2021/12/11 11:27:44;;;;;;;50.20;29.40;;;3.90;99.90;;;;;;5070945;28;20207;-53
2021/12/11 11:30:16;;;;;;;48.47;31.55;;;4.00;99.90;;;;;;5081818;28;20207;-54
2021/12/11 11:32:43;;;;;;;46.78;29.50;;;4.00;99.90;;;;;;5061611;28;20220;-56
2021/12/11 11:35:15;;;;;;;58.28;35.47;;;3.90;99.90;;;;;;5062234;28;20534;-54
2021/12/11 11:37:48;;;;;;;53.70;33.92;;;3.90;99.90;;;;;;5062918;28;20513;-55
2021/12/11 11:40:19;;;;;;;63.03;37.47;;;4.00;99.90;;;;;;5062805;28;20242;-51
2021/12/11 11:42:46;;;;;;;58.17;35.00;;;4.00;99.90;;;;;;5062402;28;20524;-53
2021/12/11 11:45:14;;;;;;;56.90;37.50;;;4.00;99.90;;;;;;5062420;28;20379;-51
2021/12/11 11:47:43;;;;;;;64.32;37.47;;;4.20;99.90;;;;;;5044337;28;20201;-52
2021/12/11 11:50:14;;;;;;;60.72;39.13;;;4.30;99.90;;;;;;5063202;28;20255;-53
2021/12/11 11:52:42;;;;;;;56.60;33.47;;;4.20;99.90;;;;;;5066108;28;20225;-55
2021/12/11 11:55:16;;;;;;;61.78;34.45;;;4.40;99.90;;;;;;5066178;28;20224;-56
2021/12/11 11:57:48;;;;;;;69.07;37.63;;;4.30;99.90;;;;;;5064103;28;20197;-51
2021/12/11 12:00:41;;;;;;;68.05;36.80;;;4.10;99.90;;;;;;5062006;28;20368;-53
2021/12/11 12:03:16;;;;;;;51.45;33.03;;;4.10;99.90;;;;;;5061997;28;20265;-54
2021/12/11 12:05:47;;;;;;;52.67;32.75;;;4.20;99.90;;;;;;5061661;28;20455;-56
2021/12/11 12:08:17;;;;;;;60.85;36.28;;;4.30;99.90;;;;;;5061617;28;20494;-53
2021/12/11 12:10:46;;;;;;;58.13;35.20;;;4.50;99.90;;;;;;5061511;28;20207;-54
2021/12/11 12:13:16;;;;;;;51.58;31.45;;;4.50;99.90;;;;;;5060685;28;20201;-52
2021/12/11 12:15:49;;;;;;;56.08;35.17;;;4.30;99.90;;;;;;5080352;28;20219;-56
2021/12/11 12:18:19;;;;;;;57.28;34.42;;;4.20;99.90;;;;;;5081714;28;20196;-53
2021/12/11 12:20:49;;;;;;;57.83;33.50;;;4.20;99.90;;;;;;5082364;28;20580;-54
2021/12/11 12:23:19;;;;;;;51.10;34.05;;;4.00;99.90;;;;;;5085816;28;20298;-53
2021/12/11 12:25:48;;;;;;;52.63;32.53;;;3.90;99.90;;;;;;5081679;28;20265;-53
2021/12/11 12:28:15;;;;;;;51.42;32.22;;;4.00;99.90;;;;;;5082023;28;20548;-54
2021/12/11 12:30:53;;;;;;;56.88;32.13;;;3.80;99.90;;;;;;5080912;28;20237;-54
2021/12/11 12:33:20;;;;;;;59.55;33.13;;;3.70;99.90;;;;;;5080752;28;20402;-53
2021/12/11 12:35:48;;;;;;;51.65;29.20;;;3.50;99.90;;;;;;5080562;28;20276;-52
2021/12/11 12:38:20;;;;;;;45.42;30.30;;;3.60;99.90;;;;;;5081391;28;20410;-54
2021/12/11 12:41:00;;;;;;;47.50;29.98;;;3.50;99.90;;;;;;5081238;28;20391;-55
2021/12/11 12:46:33;;;;;;;60.97;35.47;;;3.60;99.90;;;;;;5081253;28;20231;-53
2021/12/11 12:49:04;;;;;;;47.90;31.95;;;3.90;99.90;;;;;;5062065;28;20532;-55
2021/12/11 12:51:33;;;;;;;59.67;31.90;;;4.00;99.90;;;;;;5069262;28;20220;-54
2021/12/11 12:54:04;;;;;;;62.00;33.92;;;4.00;99.90;;;;;;5074028;28;20204;-50
2021/12/11 12:56:35;;;;;;;52.17;30.73;;;4.10;99.90;;;;;;5060858;28;20204;-51
2021/12/11 12:59:26;;;;;;;55.53;31.27;;;4.10;99.90;;;;;;5073203;28;20491;-52
2021/12/11 13:02:06;;;;;;;64.20;34.58;;;4.00;99.90;;;;;;5080663;28;20216;-55
2021/12/11 13:04:40;;;;;;;58.05;33.90;;;4.10;99.90;;;;;;5080167;28;20233;-54
2021/12/11 13:07:12;;;;;;;47.65;31.48;;;4.10;99.90;;;;;;5080825;28;20199;-53
2021/12/11 13:09:46;;;;;;;59.83;32.55;;;4.10;99.90;;;;;;5080586;28;20382;-52
2021/12/11 13:12:19;;;;;;;57.97;34.85;;;3.90;99.90;;;;;;5069761;28;20284;-52
2021/12/11 13:14:49;;;;;;;58.90;34.28;;;3.80;99.90;;;;;;5077381;28;20284;-56
2021/12/11 13:17:34;;;;;;;57.70;33.05;;;3.60;99.90;;;;;;5080219;28;20207;-53
2021/12/11 13:20:16;;;;;;;48.45;29.33;;;3.60;99.90;;;;;;5079732;28;20203;-52